Latest Weather Observations for Warruwi

IDD60801

Issued at 1:31 pm CST Sunday 11 December 2016 (issued every 30 minutes, with the page automatically refreshed every 10 minutes)

About weather observations | Map of weather stations | Latest weather observations for NT | Other Formats
Station Details ID: 014401 Name: WARRUWI AIRPORT Lat: -11.65 Lon: 133.38 Height: 19.2 m
Data from the previous 72 hours. | See also: Recent months at Warruwi
Date/Time
CST
Temp
°C
App
Temp
°C
Dew
Point
°C
Rel
Hum
%
Delta-T
°C
Wind Press
QNH
hPa
Press
MSL
hPa
Rain since
9am
mm
Dir  Spd
km/h
Gust
km/h
Spd
kts
Gust
kts
11/01:00pm 34.2 38.4 24.7 57 6.7 ENE 11 19 6 10 1008.2 1008.0 0.0
11/12:30pm 32.7 37.6 24.7 62 5.6 NE 7 11 4 6 1008.8 1008.6 0.0
11/12:00pm 31.9 37.3 25.5 69 4.5 N 7 11 4 6 1009.1 1008.9 0.0
11/11:30am 31.9 37.2 25.2 67 4.7 N 7 13 4 7 1009.6 1009.4 0.0
11/11:00am 31.8 37.2 25.2 68 4.7 NNE 6 7 3 4 1010.0 1009.8 0.0
11/10:30am 31.8 36.8 25.4 69 4.5 E 9 13 5 7 1010.2 1010.0 0.0
11/10:00am 31.7 36.6 25.3 69 4.5 E 9 13 5 7 1010.4 1010.2 0.0
11/09:30am 32.7 38.0 25.2 64 5.3 ENE 7 13 4 7 1010.4 1010.2 0.0
11/09:00am 31.6 37.4 25.2 69 4.5 NE 4 9 2 5 1010.4 1010.2 0.0
11/08:30am 31.6 37.2 25.5 70 4.3 NNE 6 11 3 6 1010.0 1009.8 0.0
11/08:00am 30.6 36.5 25.4 74 3.7 N 4 6 2 3 1009.8 1009.6 0.0
11/07:30am 30.4 36.4 25.5 75 3.5 NNE 4 7 2 4 1009.4 1009.2 0.0
11/07:00am 29.2 35.9 26.0 83 2.3 N 2 2 1 1 1009.0 1008.8 0.0
11/06:30am 28.3 35.1 25.5 85 2.0 CALM 0 0 0 0 1008.4 1008.2 0.0
11/06:00am 28.2 35.0 25.6 86 1.8 CALM 0 0 0 0 1008.1 1007.9 0.0
11/05:30am 28.0 34.5 25.6 87 1.7 NNE 2 4 1 2 1007.8 1007.6 0.0
11/05:00am 28.2 34.5 25.4 85 2.0 NNE 2 2 1 1 1007.6 1007.4 0.0
11/04:30am 28.4 34.7 25.4 84 2.1 NNE 2 4 1 2 1007.4 1007.2 0.0
11/04:00am 29.0 35.1 25.6 82 2.4 NNE 4 9 2 5 1007.2 1007.0 0.0
11/03:30am 28.7 35.2 25.7 84 2.1 NE 2 4 1 2 1007.2 1007.0 0.0
11/03:00am 28.8 34.7 25.4 82 2.4 NE 4 6 2 3 1007.2 1007.0 0.0
11/02:30am 29.2 35.7 25.6 81 2.5 NE 2 6 1 3 1007.3 1007.1 0.0
11/02:00am 29.4 35.3 25.4 79 2.8 NNE 4 7 2 4 1007.4 1007.2 0.0
11/01:30am 29.8 35.8 25.5 78 3.0 NE 4 9 2 5 1007.8 1007.6 0.0
11/01:00am 29.9 35.0 25.0 75 3.4 ENE 7 11 4 6 1007.8 1007.6 0.0
11/12:30am 29.9 35.5 25.4 77 3.2 ENE 6 9 3 5 1008.0 1007.8 0.0
11/12:00am 29.8 35.3 25.3 77 3.2 ENE 6 13 3 7 1008.3 1008.1 0.0
 
Date/Time
CST
Temp
°C
App
Temp
°C
Dew
Point
°C
Rel
Hum
%
Delta-T
°C
Wind Press
QNH
hPa
Press
MSL
hPa
Rain since
9am
mm
Dir  Spd
km/h
Gust
km/h
Spd
kts
Gust
kts
10/11:30pm 29.8 35.8 25.5 78 3.0 NE 4 7 2 4 1008.6 1008.4 0.0
10/11:00pm 29.9 35.6 25.6 78 3.0 NNE 6 7 3 4 1008.7 1008.5 0.0
10/10:30pm 29.8 36.6 26.2 81 2.6 NNE 2 4 1 2 1008.8 1008.6 0.0
10/10:00pm 29.8 36.5 26.0 80 2.7 N 2 4 1 2 1008.6 1008.4 0.0
10/09:30pm 30.0 36.5 26.2 80 2.7 NNE 4 7 2 4 1008.5 1008.3 0.0
10/09:00pm 30.1 36.3 25.8 78 3.1 NNE 4 7 2 4 1008.3 1008.1 0.0
10/08:30pm 30.3 36.6 25.4 75 3.5 NE 2 4 1 2 1008.1 1007.9 0.0
10/08:00pm 30.4 36.2 25.2 74 3.7 NE 4 6 2 3 1008.2 1008.0 0.0
10/07:30pm 30.5 36.3 25.1 73 3.8 NNE 4 6 2 3 1008.1 1007.9 0.0
10/07:00pm 30.7 36.1 25.1 72 3.9 NNE 6 13 3 7 1007.6 1007.4 0.0
10/06:30pm 30.9 35.6 25.0 71 4.2 NNE 9 17 5 9 1007.1 1006.9 0.0
10/06:00pm 31.3 35.5 24.7 68 4.6 NNE 11 17 6 9 1006.7 1006.5 0.0
10/05:30pm 32.0 35.4 24.1 63 5.5 NNE 13 22 7 12 1006.2 1006.0 0.0
10/05:00pm 32.8 36.7 24.8 62 5.6 NNE 13 24 7 13 1006.6 1006.4 0.0
10/04:30pm 32.7 36.4 24.5 62 5.8 NNE 13 20 7 11 1006.9 1006.7 0.0
10/04:00pm 33.3 36.6 24.5 60 6.2 NNE 15 20 8 11 1007.0 1006.8 0.0
10/03:30pm 33.5 37.1 24.4 59 6.4 NNE 13 22 7 12 1006.9 1006.7 0.0
10/03:00pm 33.9 38.0 24.5 58 6.6 NE 11 20 6 11 1007.2 1007.0 0.0
10/02:30pm 33.8 37.9 25.2 60 6.1 NE 13 20 7 11 1007.7 1007.5 0.0
10/02:00pm 33.6 37.8 24.8 60 6.2 ENE 11 19 6 10 1008.0 1007.8 0.0
10/01:30pm 33.8 38.0 24.7 59 6.4 E 11 15 6 8 1008.4 1008.2 0.0
10/01:00pm 33.8 38.2 24.4 58 6.6 ESE 9 15 5 8 1009.0 1008.8 0.0
10/12:30pm 33.1 37.8 25.6 64 5.3 E 11 13 6 7 1009.2 1009.0 0.0
10/12:00pm 32.9 38.8 26.2 68 4.8 SSE 7 15 4 8 1009.4 1009.2 0.0
10/11:30am 31.7 36.6 25.3 69 4.5 WNW 9 13 5 7 1009.3 1009.1 0.0
10/11:00am 32.5 38.0 25.3 66 5.1 NNW 6 9 3 5 1009.4 1009.2 0.0
10/10:30am 32.4 38.3 26.2 70 4.4 NW 7 11 4 6 1009.9 1009.7 0.0
10/10:00am 32.2 38.2 25.5 67 4.8 N 4 11 2 6 1010.1 1009.9 0.0
10/09:30am 31.6 37.9 25.9 72 4.1 ENE 4 11 2 6 1010.2 1010.0 0.0
10/09:00am 31.1 36.5 25.4 71 4.0 E 7 13 4 7 1010.4 1010.2 0.0
10/08:30am 30.4 35.2 26.3 79 2.9 SE 13 17 7 9 1010.6 1010.4 0.0
10/08:00am 30.4 35.9 26.8 81 2.6 SE 11 19 6 10 1010.4 1010.2 0.0
10/07:30am 29.6 35.8 26.6 84 2.2 SSE 7 11 4 6 1010.0 1009.8 0.0
10/07:00am 29.1 35.9 26.1 84 2.1 E 2 7 1 4 1009.6 1009.4 0.0
10/06:30am 27.4 34.1 25.4 89 1.4 CALM 0 2 0 1 1009.0 1008.8 0.0
10/06:00am 27.4 33.6 25.2 88 1.5 NNE 2 4 1 2 1008.6 1008.4 0.0
10/05:30am 28.4 34.1 25.0 82 2.4 ENE 4 7 2 4 1008.3 1008.1 0.0
10/05:00am 28.9 34.7 25.1 80 2.7 NE 4 7 2 4 1008.0 1007.8 0.0
10/04:30am 29.0 34.3 25.0 79 2.8 ENE 6 11 3 6 1007.9 1007.7 0.0
10/04:00am 29.0 34.7 25.6 82 2.4 ENE 6 9 3 5 1007.9 1007.7 0.0
10/03:30am 28.9 34.3 25.1 80 2.7 NE 6 7 3 4 1007.8 1007.6 0.0
10/03:00am 28.8 34.2 25.2 81 2.5 ENE 6 9 3 5 1007.9 1007.7 0.0
10/02:30am 28.8 34.6 25.2 81 2.5 NE 4 6 2 3 1007.8 1007.6 0.0
10/02:00am 29.2 34.8 25.4 80 2.7 NE 6 11 3 6 1007.8 1007.6 0.0
10/01:30am 29.1 35.0 25.3 80 2.7 NE 4 7 2 4 1008.2 1008.0 0.0
10/01:00am 29.3 34.9 25.5 80 2.7 NE 6 11 3 6 1008.3 1008.1 0.0
10/12:30am 29.0 34.7 25.6 82 2.4 NE 6 9 3 5 1008.3 1008.1 0.0
10/12:00am 28.9 34.9 25.5 82 2.4 NE 4 11 2 6 1008.6 1008.4 0.0
 
Date/Time
CST
Temp
°C
App
Temp
°C
Dew
Point
°C
Rel
Hum
%
Delta-T
°C
Wind Press
QNH
hPa
Press
MSL
hPa
Rain since
9am
mm
Dir  Spd
km/h
Gust
km/h
Spd
kts
Gust
kts
09/11:30pm 28.8 34.7 25.4 82 2.4 NNE 4 9 2 5 1008.8 1008.6 0.0
09/11:00pm 28.8 34.6 25.2 81 2.5 NNE 4 7 2 4 1009.1 1008.9 0.0
09/10:30pm 28.9 34.5 24.9 79 2.8 NE 4 6 2 3 1009.0 1008.8 0.0
09/10:00pm 29.0 34.6 24.8 78 2.9 NNE 4 9 2 5 1009.0 1008.8 0.0
09/09:30pm 29.3 34.4 24.6 76 3.3 NNE 6 11 3 6 1008.9 1008.7 0.0
09/09:00pm 29.2 34.6 24.5 76 3.3 NE 4 6 2 3 1008.5 1008.3 0.0
09/08:30pm 29.4 34.7 24.3 74 3.6 NNE 4 9 2 5 1008.5 1008.3 0.0
09/08:00pm 29.5 34.3 24.4 74 3.6 NNE 7 11 4 6 1008.3 1008.1 0.0
09/07:30pm 29.8 34.7 24.4 73 3.8 NNE 6 11 3 6 1008.2 1008.0 0.0
09/07:00pm 30.1 34.1 23.8 69 4.4 NE 9 15 5 8 1008.0 1007.8 0.0
09/06:30pm 30.6 34.4 23.5 66 4.9 NE 9 15 5 8 1007.6 1007.4 0.0
09/06:00pm 31.1 34.4 23.2 63 5.5 NE 11 17 6 9 1007.2 1007.0 0.0
09/05:30pm 31.6 34.9 22.6 59 6.2 NE 9 15 5 8 1006.7 1006.5 0.0
09/05:00pm 32.5 36.2 23.2 58 6.4 NE 9 17 5 9 1006.6 1006.4 0.0
09/04:30pm 32.4 35.5 22.2 55 7.0 NE 9 17 5 9 1006.6 1006.4 0.0
09/04:00pm 32.3 35.7 23.3 59 6.2 ENE 11 19 6 10 1006.8 1006.6 0.0
09/03:30pm 32.5 35.3 23.7 59 6.1 E 15 20 8 11 1007.1 1006.9 0.0
09/03:00pm 32.6 35.1 23.8 59 6.1 E 17 22 9 12 1007.4 1007.2 0.0
09/02:30pm 32.5 35.2 22.9 57 6.6 E 13 20 7 11 1007.8 1007.6 0.0
09/02:00pm 32.8 35.1 23.4 57 6.5 E 17 20 9 11 1007.9 1007.7 0.0
09/01:30pm 33.0 35.9 23.9 59 6.4 E 15 24 8 13 1008.1 1007.9 0.0
09/01:00pm 32.5 35.5 24.0 61 5.9 E 15 22 8 12 1008.1 1007.9 0.0
09/12:30pm 32.6 35.3 24.1 61 5.9 E 17 22 9 12 1008.4 1008.2 0.0
09/12:00pm 32.4 35.9 24.2 62 5.7 E 13 20 7 11 1008.8 1008.6 0.0
09/11:30am 32.8 36.8 25.6 66 5.1 E 15 20 8 11 1009.0 1008.8 0.0
09/11:00am 32.0 35.7 25.1 67 4.9 E 15 22 8 12 1009.3 1009.1 0.0
09/10:30am 31.6 35.2 25.0 68 4.7 E 15 20 8 11 1009.6 1009.4 0.0
09/10:00am 31.8 36.8 25.4 69 4.5 ESE 9 15 5 8 1009.7 1009.5 0.0
09/09:30am 31.1 35.5 25.0 70 4.3 ESE 11 17 6 9 1009.6 1009.4 0.0
09/09:00am 31.2 35.4 24.8 69 4.5 E 11 15 6 8 1009.4 1009.2 0.0
09/08:30am 29.8 36.5 26.6 83 2.3 ENE 4 6 2 3 1009.4 1009.2 0.0
09/08:00am 29.0 35.5 26.2 85 2.0 SSE 4 6 2 3 1009.0 1008.8 0.0
09/07:30am 29.0 35.3 26.0 84 2.1 SSE 4 6 2 3 1008.8 1008.6 0.0
09/07:00am 28.4 34.4 26.0 87 1.7 S 6 6 3 3 1008.5 1008.3 0.0
09/06:30am 28.0 34.5 26.2 90 1.3 SSW 4 6 2 3 1008.4 1008.2 0.0
09/06:00am 27.6 34.4 26.2 92 1.0 W 2 7 1 4 1008.0 1007.8 0.0
09/05:30am 27.1 34.0 25.7 92 1.0 CALM 0 0 0 0 1007.6 1007.4 0.0
09/05:00am 27.2 33.9 25.4 90 1.3 CALM 0 0 0 0 1007.4 1007.2 0.0
09/04:30am 27.6 34.3 25.4 88 1.5 CALM 0 0 0 0 1007.1 1006.9 0.0
09/04:00am 27.6 33.4 25.2 87 1.7 N 4 6 2 3 1007.2 1007.0 0.0
09/03:30am 27.6 33.9 25.4 88 1.5 N 2 4 1 2 1007.3 1007.1 0.0
09/03:00am 27.4 33.5 25.0 87 1.7 N 2 4 1 2 1007.3 1007.1 0.0
09/02:30am 27.4 33.5 25.0 87 1.7 N 2 4 1 2 1007.4 1007.2 0.0
09/02:00am 27.3 33.8 25.7 91 1.1 NE 2 4 1 2 1007.7 1007.5 0.0
09/01:30am 27.2 33.1 25.4 90 1.3 NE 4 6 2 3 1007.9 1007.7 0.0
09/01:00am 27.2 33.8 25.2 89 1.4 CALM 0 0 0 0 1008.0 1007.8 0.0
09/12:30am 27.9 34.7 25.5 87 1.7 CALM 0 0 0 0 1008.0 1007.8 0.0
09/12:00am 28.0 34.0 24.8 83 2.2 N 2 6 1 3 1007.9 1007.7 0.0
 
Date/Time
CST
Temp
°C
App
Temp
°C
Dew
Point
°C
Rel
Hum
%
Delta-T
°C
Wind Press
QNH
hPa
Press
MSL
hPa
Rain since
9am
mm
Dir  Spd
km/h
Gust
km/h
Spd
kts
Gust
kts
08/11:30pm 27.9 33.3 24.5 82 2.4 NNE 4 7 2 4 1007.9 1007.7 0.0
08/11:00pm 28.1 33.9 24.5 81 2.5 NNE 2 6 1 3 1007.9 1007.7 0.0
08/10:30pm 28.5 33.9 24.5 79 2.8 N 4 4 2 2 1007.8 1007.6 0.0
08/10:00pm 28.9 34.2 24.9 79 2.8 NNE 6 7 3 4 1007.7 1007.5 0.0
08/09:30pm 28.7 34.2 24.7 79 2.8 NNE 4 7 2 4 1007.4 1007.2 0.0
08/09:00pm 28.7 33.7 24.5 78 2.9 NNE 6 7 3 4 1007.0 1006.8 0.0
08/08:30pm 29.0 34.5 24.6 77 3.1 NNE 4 4 2 2 1006.7 1006.5 0.0
08/08:00pm 29.4 34.4 24.5 75 3.4 NE 6 9 3 5 1006.4 1006.2 0.0
08/07:30pm 29.7 33.9 24.1 72 3.9 NE 9 15 5 8 1006.2 1006.0 0.0
08/07:00pm 29.9 33.9 23.8 70 4.2 NE 9 17 5 9 1006.0 1005.8 0.0
08/06:30pm 30.5 34.8 24.2 69 4.4 NE 9 15 5 8 1005.7 1005.5 0.0
08/06:00pm 31.0 34.4 23.4 64 5.3 NE 11 19 6 10 1005.2 1005.0 0.0
08/05:30pm 31.7 35.5 23.5 62 5.7 NE 9 19 5 10 1005.1 1004.9 0.0
08/05:00pm 31.8 35.3 23.6 62 5.7 NE 11 22 6 12 1005.1 1004.9 0.0
08/04:30pm 32.0 35.2 23.0 59 6.2 NE 11 19 6 10 1005.0 1004.8 0.0
08/04:00pm 32.3 35.7 23.3 59 6.2 ENE 11 19 6 10 1004.9 1004.7 0.0
08/03:30pm 32.5 35.2 22.9 57 6.6 ENE 13 19 7 10 1004.9 1004.7 0.0
08/03:00pm 33.2 36.3 24.1 59 6.4 E 15 20 8 11 1005.1 1004.9 0.0
08/02:30pm 32.6 36.3 24.6 62 5.6 E 13 19 7 10 1005.3 1005.1 0.0
08/02:00pm 32.5 36.1 24.3 62 5.7 E 13 19 7 10 1005.8 1005.6 0.0

Other Formats:

Comma delimited format used in spreadsheet applications
http://www.bom.gov.au/fwo/IDD60801/IDD60801.94139.axf

JavaScript Object Notation format (JSON) in row-major order
http://www.bom.gov.au/fwo/IDD60801/IDD60801.94139.json